Terminal Aerodrome Forecast
Issued by NWS

Home | Current Version | Previous Version | Text Only | Print | Product List | Glossary On
Versions: 1 2 3 4 5 6 7 8 9 10 11 12 13
000
FTUS44 KLIX 221736
TAFHUM
TAF
KHUM 221736Z 2218/2318 VRB04KT P6SM VCTS SCT030CB
      TEMPO 2219/2223 4SM -TSRA BKN020CB
     FM230800 00000KT P6SM FEW015 FEW110
     FM231500 05005KT P6SM SCT250=

USA.gov is the U.S. government's official web portal to all federal, state and local government web resources and services.